createdAt,value
2022-12-08T00:00:19.210Z,990.47
2022-12-08T00:01:19.188Z,990.42
2022-12-08T00:02:19.340Z,990.46
2022-12-08T00:03:19.310Z,990.42
2022-12-08T00:04:19.175Z,990.41
2022-12-08T00:05:19.171Z,990.40
2022-12-08T00:06:19.139Z,990.39
2022-12-08T00:07:19.115Z,990.38
2022-12-08T00:08:19.229Z,990.33
2022-12-08T00:09:19.127Z,990.31
2022-12-08T00:10:40.254Z,990.28
2022-12-08T00:11:19.090Z,990.29
2022-12-08T00:12:19.066Z,990.30
2022-12-08T00:13:19.052Z,990.23
2022-12-08T00:14:19.057Z,990.21
2022-12-08T00:15:19.044Z,990.18
2022-12-08T00:16:19.063Z,990.18
2022-12-08T00:17:19.014Z,990.20
2022-12-08T00:18:19.017Z,990.18
2022-12-08T00:19:18.983Z,990.16
2022-12-08T00:20:19.005Z,990.13
2022-12-08T00:21:18.973Z,990.20
2022-12-08T00:22:18.953Z,990.18
2022-12-08T00:23:18.959Z,990.12
2022-12-08T00:24:18.943Z,990.15
2022-12-08T00:25:18.938Z,990.14
2022-12-08T00:26:18.935Z,990.14
2022-12-08T00:27:18.897Z,990.08
2022-12-08T00:28:18.894Z,990.08
2022-12-08T00:29:18.883Z,990.09
2022-12-08T00:30:18.866Z,990.04
2022-12-08T00:31:18.930Z,990.07
2022-12-08T00:32:19.028Z,990.09
2022-12-08T00:33:18.834Z,990.06
2022-12-08T00:34:18.822Z,990.05
2022-12-08T00:35:18.816Z,990.03
2022-12-08T00:36:18.820Z,990.03
2022-12-08T00:37:18.811Z,990.01
2022-12-08T00:38:18.810Z,990.02
2022-12-08T00:39:18.778Z,990.01
2022-12-08T00:40:18.765Z,990.00
2022-12-08T00:41:18.747Z,990.01
2022-12-08T00:42:18.738Z,990.01
2022-12-08T00:43:18.725Z,990.02
2022-12-08T00:44:18.738Z,990.01
2022-12-08T00:45:18.707Z,989.92
2022-12-08T00:46:18.749Z,989.96
2022-12-08T00:47:23.455Z,989.93
2022-12-08T00:48:18.678Z,989.97
2022-12-08T00:49:18.693Z,989.93
2022-12-08T00:50:18.687Z,989.94
2022-12-08T00:51:18.647Z,989.91
2022-12-08T00:52:18.636Z,989.92
2022-12-08T00:53:18.613Z,989.92
2022-12-08T00:54:18.620Z,989.88
2022-12-08T00:55:18.619Z,989.91
2022-12-08T00:56:18.594Z,989.91
2022-12-08T00:57:18.577Z,989.90
2022-12-08T00:58:18.580Z,989.86
2022-12-08T00:59:18.562Z,989.86
2022-12-08T01:00:18.544Z,989.80
2022-12-08T01:01:18.598Z,989.80
2022-12-08T01:02:18.527Z,989.80
2022-12-08T01:03:18.597Z,989.80
2022-12-08T01:04:18.503Z,989.84
2022-12-08T01:05:18.491Z,989.82
2022-12-08T01:06:18.484Z,989.83
2022-12-08T01:07:18.470Z,989.80
2022-12-08T01:08:18.569Z,989.81
2022-12-08T01:09:18.454Z,989.82
2022-12-08T01:10:18.440Z,989.83
2022-12-08T01:11:18.419Z,989.82
2022-12-08T01:12:18.418Z,989.83
2022-12-08T01:13:18.418Z,989.79
2022-12-08T01:14:18.388Z,989.81
2022-12-08T01:15:18.373Z,989.80
2022-12-08T01:16:18.408Z,989.80
2022-12-08T01:17:18.353Z,989.80
2022-12-08T01:18:18.374Z,989.82
2022-12-08T01:19:18.331Z,989.80
2022-12-08T01:20:18.330Z,989.82
2022-12-08T01:21:18.322Z,989.80
2022-12-08T01:22:18.302Z,989.85
2022-12-08T01:23:18.289Z,989.78
2022-12-08T01:24:18.318Z,989.78
2022-12-08T01:25:18.266Z,989.78
2022-12-08T01:26:18.269Z,989.81
2022-12-08T01:27:18.241Z,989.82
2022-12-08T01:28:18.238Z,989.78
2022-12-08T01:29:18.230Z,989.80
2022-12-08T01:30:18.250Z,989.78
2022-12-08T01:31:18.314Z,989.80
2022-12-08T01:32:18.191Z,989.80
2022-12-08T01:33:18.200Z,989.74
2022-12-08T01:34:18.169Z,989.76
2022-12-08T01:35:18.150Z,989.79
2022-12-08T01:36:18.157Z,989.74
2022-12-08T01:37:18.131Z,989.75
2022-12-08T01:38:18.126Z,989.72
2022-12-08T01:39:18.109Z,989.73
2022-12-08T01:40:18.114Z,989.73
2022-12-08T01:41:18.088Z,989.72
2022-12-08T01:42:18.096Z,989.73
2022-12-08T01:43:18.092Z,989.76
2022-12-08T01:44:18.071Z,989.76
2022-12-08T01:45:18.061Z,989.75
2022-12-08T01:46:18.084Z,989.75
2022-12-08T01:47:18.027Z,989.71
2022-12-08T01:48:18.128Z,989.71
2022-12-08T01:49:17.999Z,989.71
2022-12-08T01:50:17.995Z,989.66
2022-12-08T01:51:17.983Z,989.64
2022-12-08T01:52:17.989Z,989.65
2022-12-08T01:53:17.951Z,989.65
2022-12-08T01:54:17.943Z,989.62
2022-12-08T01:55:17.984Z,989.64
2022-12-08T01:56:17.936Z,989.63
2022-12-08T01:57:17.910Z,989.67
2022-12-08T01:58:17.909Z,989.68
2022-12-08T01:59:17.912Z,989.72
2022-12-08T02:00:17.891Z,989.72
2022-12-08T02:01:17.950Z,989.68
2022-12-08T02:02:17.918Z,989.70
2022-12-08T02:03:17.865Z,989.68
2022-12-08T02:04:17.859Z,989.66
2022-12-08T02:05:17.835Z,989.62
2022-12-08T02:06:17.808Z,989.64
2022-12-08T02:07:17.811Z,989.64
2022-12-08T02:08:17.868Z,989.65
2022-12-08T02:09:17.777Z,989.61
2022-12-08T02:10:17.779Z,989.56
2022-12-08T02:11:17.776Z,989.55
2022-12-08T02:12:17.773Z,989.59
2022-12-08T02:13:17.741Z,989.50
2022-12-08T02:14:17.732Z,989.52
2022-12-08T02:15:17.728Z,989.51
2022-12-08T02:16:17.860Z,989.49
2022-12-08T02:17:17.713Z,989.43
2022-12-08T02:18:17.693Z,989.49
2022-12-08T02:19:33.006Z,989.50
2022-12-08T02:20:17.684Z,989.42
2022-12-08T02:21:17.675Z,989.48
2022-12-08T02:22:17.655Z,989.47
2022-12-08T02:23:17.651Z,989.41
2022-12-08T02:24:17.651Z,989.44
2022-12-08T02:25:17.615Z,989.37
2022-12-08T02:26:17.616Z,989.38
2022-12-08T02:27:17.638Z,989.33
2022-12-08T02:28:17.577Z,989.34
2022-12-08T02:29:17.565Z,989.32
2022-12-08T02:30:17.575Z,989.29
2022-12-08T02:31:17.638Z,989.27
2022-12-08T02:32:17.536Z,989.31
2022-12-08T02:33:17.517Z,989.29
2022-12-08T02:34:17.522Z,989.24
2022-12-08T02:35:17.498Z,989.22
2022-12-08T02:36:17.517Z,989.22
2022-12-08T02:37:17.483Z,989.23
2022-12-08T02:38:17.474Z,989.22
2022-12-08T02:39:17.466Z,989.19
2022-12-08T02:40:17.479Z,989.21
2022-12-08T02:41:17.463Z,989.17
2022-12-08T02:42:17.465Z,989.17
2022-12-08T02:43:17.410Z,989.14
2022-12-08T02:44:17.405Z,989.14
2022-12-08T02:45:17.407Z,989.15
2022-12-08T02:46:17.447Z,989.11
2022-12-08T02:47:17.384Z,989.09
2022-12-08T02:48:17.371Z,989.11
2022-12-08T02:49:17.351Z,989.11
2022-12-08T02:50:17.352Z,989.10
2022-12-08T02:51:17.332Z,989.11
2022-12-08T02:52:17.336Z,989.11
2022-12-08T02:53:48.240Z,989.08
2022-12-08T02:54:49.230Z,989.05
2022-12-08T02:55:49.243Z,989.01
2022-12-08T02:56:49.221Z,989.02
2022-12-08T02:57:49.228Z,989.00
2022-12-08T02:58:49.188Z,988.99
2022-12-08T02:59:49.202Z,988.93
2022-12-08T03:00:49.185Z,988.95
2022-12-08T03:01:49.275Z,988.93
2022-12-08T03:02:49.199Z,988.91
2022-12-08T03:03:49.129Z,988.92
2022-12-08T03:04:49.139Z,988.91
2022-12-08T03:05:49.127Z,988.91
2022-12-08T03:06:49.101Z,988.90
2022-12-08T03:07:49.196Z,988.88
2022-12-08T03:08:49.100Z,988.89
2022-12-08T03:09:49.100Z,988.94
2022-12-08T03:10:49.063Z,988.83
2022-12-08T03:11:49.043Z,988.87
2022-12-08T03:12:49.063Z,988.87
2022-12-08T03:13:49.024Z,988.85
2022-12-08T03:14:49.015Z,988.85
2022-12-08T03:15:49.063Z,988.83
2022-12-08T03:16:48.991Z,988.79
2022-12-08T03:17:48.988Z,988.80
2022-12-08T03:18:48.997Z,988.81
2022-12-08T03:19:48.967Z,988.75
2022-12-08T03:20:48.971Z,988.77
2022-12-08T03:21:48.940Z,988.74
2022-12-08T03:22:48.948Z,988.75
2022-12-08T03:23:48.937Z,988.76
2022-12-08T03:24:48.947Z,988.73
2022-12-08T03:25:48.896Z,988.66
2022-12-08T03:26:48.879Z,988.65
2022-12-08T03:27:48.876Z,988.68
2022-12-08T03:28:48.864Z,988.64
2022-12-08T03:29:48.877Z,988.65
2022-12-08T03:30:48.895Z,988.61
2022-12-08T03:31:48.870Z,988.61
2022-12-08T03:32:48.838Z,988.56
2022-12-08T03:33:48.806Z,988.58
2022-12-08T03:34:48.804Z,988.60
2022-12-08T03:35:48.803Z,988.59
2022-12-08T03:36:48.775Z,988.59
2022-12-08T03:37:48.769Z,988.53
2022-12-08T03:38:48.749Z,988.59
2022-12-08T03:39:48.744Z,988.53
2022-12-08T03:40:48.769Z,988.55
2022-12-08T03:41:48.730Z,988.50
2022-12-08T03:42:48.724Z,988.48
2022-12-08T03:43:48.701Z,988.50
2022-12-08T03:44:48.685Z,988.47
2022-12-08T03:45:48.673Z,988.48
2022-12-08T03:46:48.672Z,988.48
2022-12-08T03:47:48.693Z,988.49
2022-12-08T03:48:48.634Z,988.44
2022-12-08T03:49:48.628Z,988.42
2022-12-08T03:50:48.616Z,988.43
2022-12-08T03:51:48.601Z,988.39
2022-12-08T03:52:48.631Z,988.41
2022-12-08T03:53:48.589Z,988.39
2022-12-08T03:54:48.587Z,988.39
2022-12-08T03:55:48.562Z,988.29
2022-12-08T03:56:48.562Z,988.34
2022-12-08T03:57:48.578Z,988.33
2022-12-08T03:58:48.558Z,988.29
2022-12-08T03:59:48.524Z,988.24
2022-12-08T04:00:48.521Z,988.23
2022-12-08T04:01:48.575Z,988.24
2022-12-08T04:02:48.530Z,988.23
2022-12-08T04:03:48.470Z,988.21
2022-12-08T04:04:48.489Z,988.25
2022-12-08T04:05:48.459Z,988.19
2022-12-08T04:06:48.443Z,988.16
2022-12-08T04:07:48.527Z,988.17
2022-12-08T04:08:48.416Z,988.17
2022-12-08T04:09:48.423Z,988.17
2022-12-08T04:10:48.395Z,988.18
2022-12-08T04:11:48.380Z,988.17
2022-12-08T04:12:48.397Z,988.17
2022-12-08T04:13:48.381Z,988.13
2022-12-08T04:14:48.357Z,988.19
2022-12-08T04:15:48.416Z,988.14
2022-12-08T04:16:48.347Z,988.21
2022-12-08T04:17:48.351Z,988.15
2022-12-08T04:18:48.313Z,988.13
2022-12-08T04:19:48.300Z,988.12
2022-12-08T04:20:48.280Z,988.13
2022-12-08T04:21:48.280Z,988.10
2022-12-08T04:22:48.269Z,988.10
2022-12-08T04:23:48.277Z,988.09
2022-12-08T04:24:48.266Z,988.06
2022-12-08T04:25:48.225Z,988.06
2022-12-08T04:26:48.228Z,988.08
2022-12-08T04:27:48.218Z,988.06
2022-12-08T04:28:48.215Z,988.04
2022-12-08T04:29:48.189Z,987.99
2022-12-08T04:30:48.172Z,987.99
2022-12-08T04:31:48.228Z,987.98
2022-12-08T04:32:48.164Z,987.98
2022-12-08T04:33:48.158Z,987.94
2022-12-08T04:34:48.147Z,987.94
2022-12-08T04:35:48.117Z,987.94
2022-12-08T04:36:48.123Z,987.92
2022-12-08T04:37:48.092Z,987.94
2022-12-08T04:38:48.085Z,987.91
2022-12-08T04:39:48.092Z,987.89
2022-12-08T04:40:48.103Z,987.89
2022-12-08T04:41:48.061Z,987.92
2022-12-08T04:42:48.053Z,987.90
2022-12-08T04:43:48.046Z,987.91
2022-12-08T04:44:48.033Z,987.85
2022-12-08T04:45:48.009Z,987.87
2022-12-08T04:46:48.069Z,987.86
2022-12-08T04:47:47.992Z,987.84
2022-12-08T04:48:47.970Z,987.85
2022-12-08T04:49:47.966Z,987.87
2022-12-08T04:50:47.966Z,987.86
2022-12-08T04:51:47.941Z,987.87
2022-12-08T04:52:47.954Z,987.91
2022-12-08T04:53:47.920Z,987.86
2022-12-08T04:54:47.914Z,987.87
2022-12-08T04:55:47.902Z,987.91
2022-12-08T04:56:47.909Z,987.86
2022-12-08T04:57:47.887Z,987.88
2022-12-08T04:58:47.867Z,987.84
2022-12-08T04:59:47.863Z,987.88
2022-12-08T05:00:47.874Z,987.91
2022-12-08T05:01:47.933Z,987.86
2022-12-08T05:02:48.000Z,987.80
2022-12-08T05:03:47.817Z,987.79
2022-12-08T05:04:47.816Z,987.83
2022-12-08T05:05:47.793Z,987.84
2022-12-08T05:06:47.793Z,987.84
2022-12-08T05:07:47.883Z,987.82
2022-12-08T05:08:47.763Z,987.74
2022-12-08T05:09:47.772Z,987.77
2022-12-08T05:10:47.740Z,987.80
2022-12-08T05:11:49.220Z,987.75
2022-12-08T05:12:47.727Z,987.80
2022-12-08T05:13:47.703Z,987.76
2022-12-08T05:14:47.691Z,987.76
2022-12-08T05:15:47.753Z,987.78
2022-12-08T05:16:47.867Z,987.77
2022-12-08T05:17:47.676Z,987.74
2022-12-08T05:18:47.662Z,987.79
2022-12-08T05:19:47.662Z,987.80
2022-12-08T05:20:47.650Z,987.78
2022-12-08T05:21:47.631Z,987.75
2022-12-08T05:22:47.656Z,987.79
2022-12-08T05:23:47.894Z,987.78
2022-12-08T05:24:48.089Z,987.73
2022-12-08T05:25:47.570Z,987.71
2022-12-08T05:26:47.565Z,987.76
2022-12-08T05:27:47.544Z,987.74
2022-12-08T05:28:47.548Z,987.72
2022-12-08T05:29:47.530Z,987.80
2022-12-08T05:30:47.524Z,987.75
2022-12-08T05:31:47.559Z,987.75
2022-12-08T05:32:47.501Z,987.79
2022-12-08T05:33:47.505Z,987.75
2022-12-08T05:34:47.468Z,987.73
2022-12-08T05:35:47.471Z,987.68
2022-12-08T05:36:47.471Z,987.71
2022-12-08T05:37:47.443Z,987.69
2022-12-08T05:38:47.436Z,987.71
2022-12-08T05:39:47.428Z,987.71
2022-12-08T05:40:47.402Z,987.71
2022-12-08T05:41:47.403Z,987.68
2022-12-08T05:42:47.381Z,987.67
2022-12-08T05:43:47.376Z,987.64
2022-12-08T05:44:47.360Z,987.68
2022-12-08T05:45:47.385Z,987.66
2022-12-08T05:46:47.349Z,987.64
2022-12-08T05:47:47.335Z,987.64
2022-12-08T05:48:47.338Z,987.63
2022-12-08T05:49:47.320Z,987.64
2022-12-08T05:50:47.292Z,987.62
2022-12-08T05:51:47.285Z,987.64
2022-12-08T05:52:47.273Z,987.61
2022-12-08T05:53:47.259Z,987.57
2022-12-08T05:54:47.286Z,987.59
2022-12-08T05:55:47.233Z,987.61
2022-12-08T05:56:47.245Z,987.59
2022-12-08T05:57:47.226Z,987.56
2022-12-08T05:58:47.217Z,987.59
2022-12-08T05:59:47.191Z,987.57
2022-12-08T06:00:47.200Z,987.54
2022-12-08T06:01:47.237Z,987.56
2022-12-08T06:02:47.428Z,987.52
2022-12-08T06:03:47.155Z,987.55
2022-12-08T06:04:47.158Z,987.48
2022-12-08T06:05:47.128Z,987.51
2022-12-08T06:06:47.126Z,987.47
2022-12-08T06:07:47.146Z,987.53
2022-12-08T06:08:47.103Z,987.51
2022-12-08T06:09:47.101Z,987.44
2022-12-08T06:10:47.084Z,987.49
2022-12-08T06:11:47.108Z,987.47
2022-12-08T06:12:47.055Z,987.46
2022-12-08T06:13:47.047Z,987.47
2022-12-08T06:14:47.033Z,987.42
2022-12-08T06:15:47.027Z,987.48
2022-12-08T06:16:47.126Z,987.47
2022-12-08T06:17:47.018Z,987.46
2022-12-08T06:18:46.989Z,987.44
2022-12-08T06:19:46.991Z,987.45
2022-12-08T06:20:46.967Z,987.44
2022-12-08T06:21:46.960Z,987.46
2022-12-08T06:22:46.949Z,987.44
2022-12-08T06:23:46.939Z,987.44
2022-12-08T06:24:46.926Z,987.40
2022-12-08T06:25:46.917Z,987.42
2022-12-08T06:26:46.908Z,987.43
2022-12-08T06:27:46.880Z,987.41
2022-12-08T06:28:46.885Z,987.39
2022-12-08T06:29:46.878Z,987.40
2022-12-08T06:30:46.869Z,987.38
2022-12-08T06:31:46.911Z,987.43
2022-12-08T06:32:46.846Z,987.42
2022-12-08T06:33:46.842Z,987.41
2022-12-08T06:34:46.834Z,987.43
2022-12-08T06:35:46.803Z,987.42
2022-12-08T06:36:46.792Z,987.36
2022-12-08T06:37:46.783Z,987.43
2022-12-08T06:38:46.770Z,987.45
2022-12-08T06:39:46.756Z,987.37
2022-12-08T06:40:46.767Z,987.40
2022-12-08T06:41:46.744Z,987.43
2022-12-08T06:42:46.722Z,987.41
2022-12-08T06:43:46.716Z,987.40
2022-12-08T06:44:46.697Z,987.33
2022-12-08T06:45:46.771Z,987.38
2022-12-08T06:46:46.671Z,987.37
2022-12-08T06:47:46.668Z,987.41
2022-12-08T06:48:46.655Z,987.35
2022-12-08T06:49:46.649Z,987.39
2022-12-08T06:50:46.654Z,987.35
2022-12-08T06:51:46.662Z,987.35
2022-12-08T06:52:58.219Z,987.36
2022-12-08T06:53:46.628Z,987.38
2022-12-08T06:54:46.589Z,987.37
2022-12-08T06:56:02.054Z,987.41
2022-12-08T06:56:46.563Z,987.35
2022-12-08T06:57:46.578Z,987.36
2022-12-08T06:58:52.122Z,987.42
2022-12-08T06:59:46.532Z,987.34
2022-12-08T07:00:46.648Z,987.40
2022-12-08T07:01:46.577Z,987.33
2022-12-08T07:02:46.627Z,987.35
2022-12-08T07:03:46.485Z,987.34
2022-12-08T07:04:46.471Z,987.34
2022-12-08T07:05:46.465Z,987.38
2022-12-08T07:06:46.444Z,987.39
2022-12-08T07:07:46.494Z,987.44
2022-12-08T07:08:46.437Z,987.41
2022-12-08T07:09:46.422Z,987.44
2022-12-08T07:10:46.414Z,987.42
2022-12-08T07:11:46.394Z,987.45
2022-12-08T07:12:46.395Z,987.49
2022-12-08T07:13:46.389Z,987.49
2022-12-08T07:14:46.383Z,987.49
2022-12-08T07:15:46.354Z,987.51
2022-12-08T07:16:46.434Z,987.48
2022-12-08T07:17:46.330Z,987.58
2022-12-08T07:18:46.317Z,987.51
2022-12-08T07:19:46.330Z,987.57
2022-12-08T07:20:46.300Z,987.56
2022-12-08T07:21:46.285Z,987.55
2022-12-08T07:22:46.282Z,987.54
2022-12-08T07:23:46.269Z,987.56
2022-12-08T07:24:46.272Z,987.60
2022-12-08T07:25:46.255Z,987.61
2022-12-08T07:26:46.241Z,987.63
2022-12-08T07:27:46.236Z,987.67
2022-12-08T07:28:46.206Z,987.62
2022-12-08T07:29:46.220Z,987.68
2022-12-08T07:30:46.288Z,987.62
2022-12-08T07:31:46.180Z,987.61
2022-12-08T07:32:46.388Z,987.64
2022-12-08T07:33:46.166Z,987.66
2022-12-08T07:34:47.279Z,987.64
2022-12-08T07:35:49.295Z,987.64
2022-12-08T07:36:46.117Z,987.66
2022-12-08T07:37:46.107Z,987.66
2022-12-08T07:38:46.134Z,987.66
2022-12-08T07:39:46.111Z,987.69
2022-12-08T07:40:46.070Z,987.69
2022-12-08T07:41:46.083Z,987.68
2022-12-08T07:42:46.065Z,987.63
2022-12-08T07:43:46.042Z,987.61
2022-12-08T07:44:46.040Z,987.64
2022-12-08T07:45:46.078Z,987.62
2022-12-08T07:46:46.010Z,987.57
2022-12-08T07:47:45.995Z,987.61
2022-12-08T07:48:46.002Z,987.58
2022-12-08T07:49:45.975Z,987.60
2022-12-08T07:50:45.958Z,987.62
2022-12-08T07:51:45.979Z,987.61
2022-12-08T07:52:45.958Z,987.59
2022-12-08T07:53:51.664Z,987.64
2022-12-08T07:54:45.941Z,987.57
2022-12-08T07:55:45.911Z,987.61
2022-12-08T07:56:45.928Z,987.62
2022-12-08T07:57:45.908Z,987.63
2022-12-08T07:58:45.892Z,987.63
2022-12-08T07:59:45.876Z,987.61
2022-12-08T08:00:45.871Z,987.62
2022-12-08T08:01:46.113Z,987.60
2022-12-08T08:02:45.853Z,987.59
2022-12-08T08:03:45.833Z,987.58
2022-12-08T08:04:45.846Z,987.60
2022-12-08T08:05:45.802Z,987.60
2022-12-08T08:06:45.790Z,987.60
2022-12-08T08:07:45.849Z,987.62
2022-12-08T08:08:45.769Z,987.64
2022-12-08T08:09:45.918Z,987.58
2022-12-08T08:10:45.751Z,987.65
2022-12-08T08:12:01.087Z,987.61
2022-12-08T08:12:45.719Z,987.63
2022-12-08T08:13:45.717Z,987.64
2022-12-08T08:14:45.734Z,987.64
2022-12-08T08:15:45.847Z,987.62
2022-12-08T08:16:45.864Z,987.66
2022-12-08T08:17:45.668Z,987.65
2022-12-08T08:18:45.657Z,987.57
2022-12-08T08:19:45.655Z,987.64
2022-12-08T08:20:45.631Z,987.64
2022-12-08T08:21:46.451Z,987.64
2022-12-08T08:22:45.605Z,987.65
2022-12-08T08:23:45.609Z,987.66
2022-12-08T08:24:45.583Z,987.64
2022-12-08T08:25:45.599Z,987.63
2022-12-08T08:26:45.571Z,987.64
2022-12-08T08:27:45.575Z,987.64
2022-12-08T08:28:45.545Z,987.69
2022-12-08T08:29:45.552Z,987.65
2022-12-08T08:30:45.536Z,987.66
2022-12-08T08:31:45.542Z,987.70
2022-12-08T08:32:45.498Z,987.71
2022-12-08T08:33:45.504Z,987.72
2022-12-08T08:34:45.505Z,987.74
2022-12-08T08:35:45.485Z,987.76
2022-12-08T08:36:45.491Z,987.73
2022-12-08T08:37:48.871Z,987.80
2022-12-08T08:38:45.452Z,987.77
2022-12-08T08:39:45.440Z,987.81
2022-12-08T08:40:45.422Z,987.74
2022-12-08T08:41:45.604Z,987.73
2022-12-08T08:42:45.506Z,987.78
2022-12-08T08:43:45.373Z,987.81
2022-12-08T08:44:45.378Z,987.82
2022-12-08T08:45:45.376Z,987.77
2022-12-08T08:46:45.380Z,987.76
2022-12-08T08:47:45.345Z,987.79
2022-12-08T08:48:45.334Z,987.78
2022-12-08T08:49:45.353Z,987.77
2022-12-08T08:50:45.308Z,987.76
2022-12-08T08:51:45.309Z,987.75
2022-12-08T08:52:45.289Z,987.75
2022-12-08T08:53:45.268Z,987.80
2022-12-08T08:54:45.293Z,987.82
2022-12-08T08:55:45.285Z,987.83
2022-12-08T08:56:45.261Z,987.80
2022-12-08T08:57:45.261Z,987.80
2022-12-08T08:58:45.207Z,987.71
2022-12-08T08:59:45.235Z,987.78
2022-12-08T09:00:45.228Z,987.74
2022-12-08T09:01:45.277Z,987.71
2022-12-08T09:02:45.161Z,987.77
2022-12-08T09:03:45.199Z,987.77
2022-12-08T09:04:45.212Z,987.75
2022-12-08T09:05:45.211Z,987.78
2022-12-08T09:06:45.152Z,987.73
2022-12-08T09:07:45.125Z,987.74
2022-12-08T09:08:45.091Z,987.71
2022-12-08T09:09:45.100Z,987.77
2022-12-08T09:10:45.081Z,987.73
2022-12-08T09:11:45.088Z,987.75
2022-12-08T09:12:45.079Z,987.73
2022-12-08T09:13:45.047Z,987.71
2022-12-08T09:14:45.068Z,987.71
2022-12-08T09:15:45.077Z,987.74
2022-12-08T09:16:45.131Z,987.74
2022-12-08T09:17:45.018Z,987.75
2022-12-08T09:18:44.985Z,987.75
2022-12-08T09:19:44.982Z,987.75
2022-12-08T09:20:44.960Z,987.73
2022-12-08T09:21:44.965Z,987.75
2022-12-08T09:22:44.945Z,987.76
2022-12-08T09:23:44.947Z,987.77
2022-12-08T09:24:44.913Z,987.73
2022-12-08T09:25:44.926Z,987.72
2022-12-08T09:26:44.897Z,987.78
2022-12-08T09:27:44.883Z,987.73
2022-12-08T09:28:44.867Z,987.75
2022-12-08T09:29:44.898Z,987.73
2022-12-08T09:30:44.849Z,987.73
2022-12-08T09:31:44.975Z,987.71
2022-12-08T09:32:44.844Z,987.73
2022-12-08T09:33:44.814Z,987.71
2022-12-08T09:34:50.445Z,987.70
2022-12-08T09:35:44.801Z,987.67
2022-12-08T09:36:44.796Z,987.69
2022-12-08T09:37:44.773Z,987.74
2022-12-08T09:38:44.757Z,987.69
2022-12-08T09:39:44.754Z,987.69
2022-12-08T09:40:44.763Z,987.71
2022-12-08T09:41:48.032Z,987.67
2022-12-08T09:42:44.715Z,987.69
2022-12-08T09:43:44.718Z,987.71
2022-12-08T09:44:44.705Z,987.67
2022-12-08T09:45:44.718Z,987.66
2022-12-08T09:46:44.774Z,987.64
2022-12-08T09:47:44.672Z,987.69
2022-12-08T09:48:44.787Z,987.66
2022-12-08T09:49:44.654Z,987.69
2022-12-08T09:50:44.647Z,987.68
2022-12-08T09:51:44.634Z,987.69
2022-12-08T09:52:44.650Z,987.68
2022-12-08T09:53:44.592Z,987.66
2022-12-08T09:54:44.595Z,987.63
2022-12-08T09:55:44.570Z,987.60
2022-12-08T09:56:44.567Z,987.59
2022-12-08T09:57:44.562Z,987.62
2022-12-08T09:58:44.584Z,987.59
2022-12-08T09:59:44.537Z,987.59
2022-12-08T10:00:44.539Z,987.62
2022-12-08T10:01:44.572Z,987.60
2022-12-08T10:02:44.503Z,987.59
2022-12-08T10:03:44.504Z,987.62
2022-12-08T10:04:44.574Z,987.54
2022-12-08T10:05:44.478Z,987.56
2022-12-08T10:06:44.454Z,987.60
2022-12-08T10:07:44.484Z,987.55
2022-12-08T10:08:44.440Z,987.58
2022-12-08T10:09:44.445Z,987.58
2022-12-08T10:10:44.468Z,987.56
2022-12-08T10:11:44.407Z,987.60
2022-12-08T10:12:44.382Z,987.56
2022-12-08T10:13:44.371Z,987.56
2022-12-08T10:14:44.375Z,987.53
2022-12-08T10:15:44.466Z,987.53
2022-12-08T10:16:44.447Z,987.51
2022-12-08T10:17:44.337Z,987.49
2022-12-08T10:18:44.316Z,987.48
2022-12-08T10:19:44.314Z,987.47
2022-12-08T10:20:44.302Z,987.51
2022-12-08T10:21:44.290Z,987.44
2022-12-08T10:22:45.117Z,987.44
2022-12-08T10:23:44.266Z,987.48
2022-12-08T10:24:44.272Z,987.40
2022-12-08T10:25:44.252Z,987.46
2022-12-08T10:26:44.248Z,987.46
2022-12-08T10:27:44.225Z,987.48
2022-12-08T10:28:45.421Z,987.41
2022-12-08T10:29:44.204Z,987.44
2022-12-08T10:30:44.207Z,987.41
2022-12-08T10:31:44.240Z,987.41
2022-12-08T10:32:44.167Z,987.41
2022-12-08T10:33:44.154Z,987.40
2022-12-08T10:34:44.146Z,987.39
2022-12-08T10:35:44.137Z,987.29
2022-12-08T10:36:44.125Z,987.34
2022-12-08T10:37:44.126Z,987.38
2022-12-08T10:38:44.109Z,987.36
2022-12-08T10:39:44.107Z,987.28
2022-12-08T10:40:45.822Z,987.26
2022-12-08T10:41:44.073Z,987.27
2022-12-08T10:42:44.070Z,987.29
2022-12-08T10:43:44.109Z,987.32
2022-12-08T10:44:44.035Z,987.30
2022-12-08T10:45:44.037Z,987.30
2022-12-08T10:46:44.158Z,987.26
2022-12-08T10:47:45.493Z,987.29
2022-12-08T10:48:44.035Z,987.32
2022-12-08T10:49:43.977Z,987.30
2022-12-08T10:50:43.975Z,987.29
2022-12-08T10:51:43.982Z,987.26
2022-12-08T10:52:43.959Z,987.27
2022-12-08T10:53:43.991Z,987.23
2022-12-08T10:54:43.926Z,987.30
2022-12-08T10:55:43.931Z,987.25
2022-12-08T10:56:43.895Z,987.25
2022-12-08T10:57:43.893Z,987.29
2022-12-08T10:58:43.883Z,987.23
2022-12-08T10:59:43.935Z,987.24
2022-12-08T11:00:44.083Z,987.28
2022-12-08T11:01:44.055Z,987.29
2022-12-08T11:02:43.861Z,987.28
2022-12-08T11:03:43.841Z,987.26
2022-12-08T11:04:43.839Z,987.22
2022-12-08T11:05:43.837Z,987.30
2022-12-08T11:06:43.815Z,987.23
2022-12-08T11:07:43.873Z,987.22
2022-12-08T11:08:43.799Z,987.26
2022-12-08T11:09:43.769Z,987.17
2022-12-08T11:10:43.752Z,987.20
2022-12-08T11:11:43.740Z,987.14
2022-12-08T11:12:43.730Z,987.12
2022-12-08T11:13:43.720Z,987.16
2022-12-08T11:14:43.724Z,987.13
2022-12-08T11:15:43.713Z,987.16
2022-12-08T11:16:43.791Z,987.16
2022-12-08T11:17:43.697Z,987.16
2022-12-08T11:18:43.658Z,987.15
2022-12-08T11:19:43.658Z,987.14
2022-12-08T11:20:43.646Z,987.12
2022-12-08T11:21:43.639Z,987.07
2022-12-08T11:22:43.714Z,987.03
2022-12-08T11:23:43.598Z,987.01
2022-12-08T11:24:43.595Z,987.04
2022-12-08T11:25:43.618Z,986.92
2022-12-08T11:26:43.617Z,986.91
2022-12-08T11:27:43.612Z,986.90
2022-12-08T11:28:43.565Z,986.91
2022-12-08T11:29:43.566Z,986.94
2022-12-08T11:30:43.529Z,986.94
2022-12-08T11:31:43.640Z,986.90
2022-12-08T11:32:43.537Z,986.99
2022-12-08T11:33:43.618Z,986.95
2022-12-08T11:34:43.484Z,986.92
2022-12-08T11:35:43.479Z,986.91
2022-12-08T11:36:43.455Z,986.93
2022-12-08T11:37:43.479Z,986.92
2022-12-08T11:38:43.435Z,986.93
2022-12-08T11:39:43.467Z,986.89
2022-12-08T11:40:43.433Z,986.94
2022-12-08T11:41:43.423Z,986.88
2022-12-08T11:42:43.410Z,986.90
2022-12-08T11:43:43.389Z,986.89
2022-12-08T11:44:43.392Z,986.86
2022-12-08T11:45:43.453Z,986.84
2022-12-08T11:46:43.350Z,986.79
2022-12-08T11:47:43.342Z,986.76
2022-12-08T11:48:43.340Z,986.80
2022-12-08T11:49:43.310Z,986.82
2022-12-08T11:50:43.333Z,986.79
2022-12-08T11:51:43.398Z,986.77
2022-12-08T11:52:43.298Z,986.82
2022-12-08T11:53:43.279Z,986.78
2022-12-08T11:54:43.266Z,986.76
2022-12-08T11:55:48.158Z,986.66
2022-12-08T11:56:43.252Z,986.72
2022-12-08T11:57:43.309Z,986.74
2022-12-08T11:58:43.276Z,986.77
2022-12-08T11:59:43.199Z,986.68
2022-12-08T12:00:43.221Z,986.75
2022-12-08T12:01:43.340Z,986.71
2022-12-08T12:02:43.266Z,986.78
2022-12-08T12:03:43.241Z,986.76
2022-12-08T12:04:43.152Z,986.71
2022-12-08T12:06:24.220Z,986.77
2022-12-08T12:06:58.560Z,986.76
2022-12-08T12:07:43.211Z,986.76
2022-12-08T12:08:43.109Z,986.77
2022-12-08T12:09:43.094Z,986.75
2022-12-08T12:10:43.101Z,986.75
2022-12-08T12:11:43.102Z,986.75
2022-12-08T12:12:43.070Z,986.76
2022-12-08T12:13:43.070Z,986.72
2022-12-08T12:14:43.052Z,986.75
2022-12-08T12:15:43.036Z,986.68
2022-12-08T12:16:43.152Z,986.70
2022-12-08T12:17:43.010Z,986.72
2022-12-08T12:18:43.003Z,986.72
2022-12-08T12:19:43.002Z,986.72
2022-12-08T12:20:42.970Z,986.77
2022-12-08T12:21:42.979Z,986.70
2022-12-08T12:22:42.967Z,986.70
2022-12-08T12:23:42.963Z,986.67
2022-12-08T12:24:42.936Z,986.69
2022-12-08T12:25:42.919Z,986.66
2022-12-08T12:26:42.915Z,986.65
2022-12-08T12:27:42.914Z,986.63
2022-12-08T12:28:42.902Z,986.66